Time;durP1;ratioP1;P1;durP2;ratioP2;P2;SDS_P1;SDS_P2;PMS_P1;PMS_P2;Temp;Humidity;BMP_temperature;BMP_pressure;BME280_temperature;BME280_humidity;BME280_pressure;Samples;Min_cycle;Max_cycle;Signal;HPM_P1;HPM_P2
2024/02/18 00:02:04;;;;;;;44.80;22.10;;;;;;;-5.57;100.00;140925.38;106600;1269;25331;-64
2024/02/18 00:04:49;;;;;;;45.00;21.10;;;;;;;-5.61;100.00;140916.22;106553;1269;25459;-62
2024/02/18 00:07:35;;;;;;;46.70;22.40;;;;;;;-5.65;100.00;140905.34;106551;1269;25366;-63
2024/02/18 00:10:22;;;;;;;44.10;21.90;;;;;;;-5.66;100.00;140903.13;106559;1269;25331;-60
2024/02/18 00:13:08;;;;;;;47.20;22.40;;;;;;;-5.61;100.00;140915.72;106543;1269;25340;-62
2024/02/18 00:15:54;;;;;;;49.20;23.00;;;;;;;-5.58;100.00;140923.41;106568;1269;25332;-63
2024/02/18 00:18:40;;;;;;;48.90;22.90;;;;;;;-5.59;100.00;140920.94;106554;1274;25491;-64
2024/02/18 00:21:29;;;;;;;50.20;23.40;;;;;;;-5.61;100.00;140916.22;106549;1269;25491;-65
2024/02/18 00:24:15;;;;;;;52.20;24.20;;;;;;;-5.61;100.00;140915.97;106554;1269;25338;-66
2024/02/18 00:27:01;;;;;;;44.30;22.20;;;;;;;-5.58;100.00;140921.66;106564;1269;25338;-65
2024/02/18 00:29:47;;;;;;;50.70;23.10;;;;;;;-5.54;100.00;140932.33;106599;1269;25478;-61
2024/02/18 00:32:33;;;;;;;50.80;24.80;;;;;;;-5.51;100.00;140941.45;106614;1269;25465;-64
2024/02/18 00:35:19;;;;;;;50.50;24.60;;;;;;;-5.51;100.00;140941.44;106569;1267;25356;-68
2024/02/18 00:38:05;;;;;;;45.10;22.90;;;;;;;-5.50;100.00;140942.17;106534;1269;25400;-63
2024/02/18 00:40:50;;;;;;;48.00;24.30;;;;;;;-5.50;100.00;140943.17;106583;1269;25320;-65
2024/02/18 00:43:35;;;;;;;50.00;23.30;;;;;;;-5.55;100.00;140931.80;107011;1266;25466;-64
2024/02/18 00:46:21;;;;;;;45.00;22.80;;;;;;;-5.51;100.00;140939.47;107030;1272;25400;-67
2024/02/18 00:49:27;;;;;;;49.60;24.30;;;;;;;-5.46;100.00;140953.58;107013;1265;25353;-61
2024/02/18 00:52:13;;;;;;;53.10;23.50;;;;;;;-5.43;100.00;140959.02;107042;1263;25375;-64
2024/02/18 00:54:59;;;;;;;53.90;25.20;;;;;;;-5.38;100.00;140972.38;107039;1266;25338;-61
2024/02/18 00:57:45;;;;;;;50.60;23.70;;;;;;;-5.36;100.00;140975.84;107026;1263;25343;-62
2024/02/18 01:00:30;;;;;;;56.40;24.50;;;;;;;-5.39;100.00;140967.92;107037;1265;25344;-62
2024/02/18 01:03:16;;;;;;;52.30;24.50;;;;;;;-5.39;100.00;140968.16;107027;1263;25390;-63
2024/02/18 01:06:05;;;;;;;53.40;24.50;;;;;;;-5.34;100.00;140980.28;106995;1273;25484;-63
2024/02/18 01:08:50;;;;;;;49.70;22.70;;;;;;;-5.28;100.00;140994.66;107037;1266;25353;-62
2024/02/18 01:11:36;;;;;;;50.90;24.60;;;;;;;-5.27;100.00;140997.84;107045;1263;25353;-66
2024/02/18 01:14:23;;;;;;;54.60;24.90;;;;;;;-5.26;100.00;140999.59;106961;1266;25488;-62
2024/02/18 01:17:09;;;;;;;54.50;22.50;;;;;;;-5.26;100.00;140999.59;106986;1266;25509;-66
2024/02/18 01:19:57;;;;;;;54.30;27.40;;;;;;;-5.24;100.00;141004.78;106991;1268;25392;-64
2024/02/18 01:22:43;;;;;;;48.90;24.10;;;;;;;-5.23;100.00;141008.97;106998;1265;25853;-61
2024/02/18 01:25:29;;;;;;;51.80;24.00;;;;;;;-5.21;100.00;141012.70;107007;1266;25373;-64
2024/02/18 01:28:14;;;;;;;52.00;24.10;;;;;;;-5.18;100.00;141019.13;106995;1265;25411;-62
2024/02/18 01:31:01;;;;;;;52.50;25.10;;;;;;;-5.13;100.00;141032.47;106975;1275;25325;-62
2024/02/18 01:33:46;;;;;;;55.40;26.00;;;;;;;-5.10;100.00;141040.66;106985;1266;25395;-62
2024/02/18 01:36:32;;;;;;;51.90;24.60;;;;;;;-5.05;100.00;141051.03;107063;1264;25334;-61
2024/02/18 01:39:18;;;;;;;52.00;23.60;;;;;;;-5.02;100.00;141058.47;107074;1266;25385;-69
2024/02/18 01:42:04;;;;;;;59.30;25.40;;;;;;;-5.05;100.00;141051.03;107013;1263;25508;-64
2024/02/18 01:44:50;;;;;;;52.80;23.80;;;;;;;-5.05;100.00;141051.30;107020;1263;25459;-65
2024/02/18 01:47:38;;;;;;;57.20;24.60;;;;;;;-5.03;100.00;141056.27;107032;1266;25363;-64
2024/02/18 01:50:24;;;;;;;52.90;26.10;;;;;;;-5.00;100.00;141064.16;106980;1267;25501;-61
2024/02/18 01:53:11;;;;;;;57.40;26.40;;;;;;;-4.97;100.00;141069.84;106926;1266;25551;-63
2024/02/18 01:55:56;;;;;;;50.60;24.60;;;;;;;-4.97;100.00;141069.84;106914;1263;25362;-65
2024/02/18 01:58:42;;;;;;;56.60;25.20;;;;;;;-4.99;100.00;141064.91;106852;1268;25389;-66
2024/02/18 02:01:30;;;;;;;52.70;23.90;;;;;;;-4.97;100.00;141068.59;106932;1266;25318;-63
2024/02/18 02:04:15;;;;;;;41.60;21.30;;;;;;;-4.97;100.00;141069.34;107023;1267;25338;-60
2024/02/18 02:07:01;;;;;;;44.60;22.10;;;;;;;-4.95;100.00;141076.03;107037;1263;25420;-61
2024/02/18 02:09:48;;;;;;;49.60;22.40;;;;;;;-4.92;100.00;141082.47;107028;1266;25353;-63
2024/02/18 02:12:34;;;;;;;52.80;23.40;;;;;;;-4.91;100.00;141084.69;107027;1263;25371;-64
2024/02/18 02:15:22;;;;;;;49.80;23.40;;;;;;;-4.89;100.00;141090.14;107016;1272;25353;-64
2024/02/18 02:18:07;;;;;;;45.80;22.50;;;;;;;-4.83;100.00;141103.50;106986;1260;25340;-60
2024/02/18 02:20:53;;;;;;;51.60;24.10;;;;;;;-4.80;100.00;141111.67;106870;1264;25331;-64
2024/02/18 02:23:39;;;;;;;50.90;23.10;;;;;;;-4.76;100.00;141121.56;106898;1263;25423;-64
2024/02/18 02:26:30;;;;;;;50.60;24.20;;;;;;;-4.69;100.00;141137.66;106868;1268;25395;-62
2024/02/18 02:29:16;;;;;;;47.00;22.90;;;;;;;-4.61;100.00;141158.45;106927;1263;25334;-60
2024/02/18 02:32:02;;;;;;;46.40;23.00;;;;;;;-4.58;100.00;141164.36;107002;1266;25325;-62
2024/02/18 02:34:48;;;;;;;52.20;24.00;;;;;;;-4.56;100.00;141167.63;107044;1266;25355;-64
2024/02/18 02:37:34;;;;;;;53.20;23.30;;;;;;;-4.55;100.00;141172.06;107028;1266;25455;-63
2024/02/18 02:40:20;;;;;;;50.60;23.00;;;;;;;-4.52;100.00;141177.75;107055;1266;25446;-63
2024/02/18 02:43:05;;;;;;;44.30;22.20;;;;;;;-4.50;100.00;141184.69;107055;1273;25479;-61
2024/02/18 02:45:51;;;;;;;50.70;24.30;;;;;;;-4.44;100.00;141198.05;107033;1266;24173;-63
2024/02/18 02:48:37;;;;;;;57.70;26.00;;;;;;;-4.36;100.00;141216.88;107045;1263;25399;-66
2024/02/18 02:51:23;;;;;;;52.30;24.20;;;;;;;-4.33;100.00;141225.55;107032;1268;25490;-62
2024/02/18 02:54:09;;;;;;;47.60;23.60;;;;;;;-4.33;100.00;141226.03;107033;1273;25327;-61
2024/02/18 02:56:54;;;;;;;56.80;25.80;;;;;;;-4.30;100.00;141232.23;107027;1263;23710;-62
2024/02/18 02:59:40;;;;;;;48.00;23.40;;;;;;;-4.22;100.00;141252.05;107009;1266;25363;-64
2024/02/18 03:02:26;;;;;;;48.90;23.10;;;;;;;-4.19;100.00;141260.20;107040;1266;25430;-61
2024/02/18 03:05:11;;;;;;;47.20;22.40;;;;;;;-4.16;100.00;141267.89;107005;1264;25487;-60
2024/02/18 03:07:58;;;;;;;50.00;22.70;;;;;;;-4.13;100.00;141274.08;107021;1273;25362;-64
2024/02/18 03:10:43;;;;;;;47.70;22.00;;;;;;;-4.15;100.00;141268.88;107012;1265;25335;-63
2024/02/18 03:13:29;;;;;;;42.40;20.60;;;;;;;-4.19;100.00;141258.72;107025;1266;25487;-62
2024/02/18 03:16:15;;;;;;;47.20;22.70;;;;;;;-4.34;100.00;141222.08;107041;1267;25508;-64
2024/02/18 03:19:01;;;;;;;38.40;19.00;;;;;;;-4.40;100.00;141208.19;107015;1266;25392;-63
2024/02/18 03:21:46;;;;;;;41.50;20.60;;;;;;;-4.42;100.00;141204.00;107030;1264;25343;-64
2024/02/18 03:24:32;;;;;;;41.20;20.00;;;;;;;-4.46;100.00;141193.59;107012;1264;25452;-65
2024/02/18 03:27:18;;;;;;;34.80;18.40;;;;;;;-4.47;100.00;141191.86;107010;1264;25421;-65
2024/02/18 03:30:07;;;;;;;41.50;19.90;;;;;;;-4.52;100.00;141179.23;107039;1263;25349;-64
2024/02/18 03:32:53;;;;;;;42.00;18.20;;;;;;;-4.59;100.00;141162.91;107050;1263;25437;-65
2024/02/18 03:35:39;;;;;;;44.40;21.20;;;;;;;-4.61;100.00;141157.44;107018;1266;25519;-65
2024/02/18 03:38:24;;;;;;;40.50;19.80;;;;;;;-4.60;100.00;141159.69;107038;1263;25522;-64
2024/02/18 03:41:09;;;;;;;45.40;20.30;;;;;;;-4.59;100.00;141162.41;107019;1263;25382;-64
2024/02/18 03:43:55;;;;;;;40.00;20.50;;;;;;;-4.55;100.00;141170.56;107035;1266;25362;-62
2024/02/18 03:46:41;;;;;;;44.60;21.40;;;;;;;-4.52;100.00;141178.73;107032;1263;25415;-61
2024/02/18 03:49:26;;;;;;;34.70;18.00;;;;;;;-4.50;100.00;141184.42;107014;1267;25362;-65
2024/02/18 03:52:12;;;;;;;42.70;20.80;;;;;;;-4.46;100.00;141195.09;107014;1264;25368;-66
2024/02/18 03:54:58;;;;;;;40.30;20.00;;;;;;;-4.40;100.00;141208.69;107029;1263;25385;-62
2024/02/18 03:57:45;;;;;;;43.60;20.40;;;;;;;-4.35;100.00;141219.86;106991;1266;25558;-60
2024/02/18 04:00:31;;;;;;;40.30;19.70;;;;;;;-4.32;100.00;141228.03;107015;1272;25505;-60
2024/02/18 04:03:17;;;;;;;42.00;19.50;;;;;;;-4.27;100.00;141240.63;107013;1256;25411;-64
2024/02/18 04:06:03;;;;;;;43.50;20.70;;;;;;;-4.19;100.00;141260.45;107035;1267;25327;-64
2024/02/18 04:08:49;;;;;;;36.90;19.20;;;;;;;-4.12;100.00;141274.81;107029;1269;25335;-66
2024/02/18 04:11:34;;;;;;;36.00;17.70;;;;;;;-4.07;100.00;141288.92;107017;1272;25484;-63
2024/02/18 04:14:20;;;;;;;35.70;18.00;;;;;;;-4.06;100.00;141289.42;107004;1266;25412;-65
2024/02/18 04:17:05;;;;;;;33.60;16.70;;;;;;;-4.04;100.00;141294.63;107014;1273;25343;-65
2024/02/18 04:19:51;;;;;;;32.60;17.00;;;;;;;-3.99;100.00;141306.53;106990;1271;25325;-64
2024/02/18 04:22:37;;;;;;;36.00;18.00;;;;;;;-3.97;100.00;141312.95;106982;1266;25468;-67
2024/02/18 04:25:22;;;;;;;32.30;16.80;;;;;;;-3.93;100.00;141322.36;107032;1274;25402;-63
2024/02/18 04:28:08;;;;;;;32.50;16.50;;;;;;;-3.89;100.00;141330.80;107013;1272;25343;-65
2024/02/18 04:30:54;;;;;;;29.20;16.60;;;;;;;-3.86;100.00;141337.97;107014;1272;25363;-66
2024/02/18 04:33:39;;;;;;;28.60;15.30;;;;;;;-3.87;100.00;141336.72;106975;1266;25414;-64
2024/02/18 04:36:25;;;;;;;32.00;15.30;;;;;;;-3.87;100.00;141336.97;106955;1266;25436;-66
2024/02/18 04:39:11;;;;;;;26.70;14.70;;;;;;;-3.84;100.00;141343.44;106939;1267;25492;-64
2024/02/18 04:41:57;;;;;;;28.60;15.50;;;;;;;-3.85;100.00;141341.69;106931;1271;25366;-64
2024/02/18 04:44:42;;;;;;;27.20;15.00;;;;;;;-3.84;100.00;141345.16;107029;1272;25385;-64
2024/02/18 04:47:29;;;;;;;27.20;14.40;;;;;;;-3.81;100.00;141352.34;106999;1267;25405;-65
2024/02/18 04:50:14;;;;;;;25.40;14.60;;;;;;;-3.83;100.00;141346.88;106989;1263;25522;-62
2024/02/18 04:53:00;;;;;;;29.30;13.70;;;;;;;-3.86;100.00;141339.47;107062;1274;25411;-63
2024/02/18 04:55:46;;;;;;;26.10;14.00;;;;;;;-3.85;100.00;141342.41;107057;1270;25411;-65
2024/02/18 04:58:33;;;;;;;26.10;14.40;;;;;;;-3.80;100.00;141354.81;107025;1257;25353;-62
2024/02/18 05:01:18;;;;;;;26.70;14.10;;;;;;;-3.77;100.00;141362.23;107039;1272;25353;-66
2024/02/18 05:04:04;;;;;;;26.80;14.20;;;;;;;-3.70;100.00;141378.09;107001;1266;25487;-64
2024/02/18 05:06:50;;;;;;;26.20;14.20;;;;;;;-3.65;100.00;141389.25;107034;1266;25507;-63
2024/02/18 05:09:39;;;;;;;20.30;11.20;;;;;;;-3.67;100.00;141386.03;107011;1263;25333;-65
2024/02/18 05:12:24;;;;;;;19.70;11.00;;;;;;;-3.70;100.00;141379.09;107033;1272;25398;-67
2024/02/18 05:15:10;;;;;;;20.80;12.00;;;;;;;-3.72;100.00;141373.63;107041;1269;25318;-65
2024/02/18 05:17:56;;;;;;;19.10;11.10;;;;;;;-3.74;100.00;141369.44;107008;1266;25363;-67
2024/02/18 05:20:41;;;;;;;21.60;11.50;;;;;;;-3.74;100.00;141367.69;107032;1266;25334;-65
2024/02/18 05:23:27;;;;;;;18.30;10.20;;;;;;;-3.76;100.00;141363.97;107020;1266;25469;-58
2024/02/18 05:26:13;;;;;;;17.90;10.40;;;;;;;-3.75;100.00;141365.47;107036;1273;25401;-63
2024/02/18 05:28:58;;;;;;;16.60;8.80;;;;;;;-3.78;100.00;141360.03;106998;1273;25340;-63
2024/02/18 05:31:44;;;;;;;16.60;10.00;;;;;;;-3.81;100.00;141352.34;107032;1265;25325;-61
2024/02/18 05:34:29;;;;;;;20.90;11.20;;;;;;;-3.81;100.00;141350.09;107018;1273;25350;-62
2024/02/18 05:37:15;;;;;;;17.20;9.30;;;;;;;-3.81;100.00;141352.34;107022;1272;25475;-60
2024/02/18 05:40:02;;;;;;;16.60;9.80;;;;;;;-3.85;100.00;141341.95;107002;1272;25953;-62
2024/02/18 05:42:47;;;;;;;16.40;8.80;;;;;;;-3.84;100.00;141343.67;107008;1273;25335;-64
2024/02/18 05:45:33;;;;;;;20.90;11.90;;;;;;;-3.85;100.00;141342.19;107020;1272;25353;-65
2024/02/18 05:48:18;;;;;;;27.10;17.90;;;;;;;-3.80;100.00;141353.83;107014;1268;25318;-66
2024/02/18 05:51:05;;;;;;;16.40;9.60;;;;;;;-3.77;100.00;141361.77;107026;1264;25395;-61
2024/02/18 05:53:53;;;;;;;14.70;9.30;;;;;;;-3.78;100.00;141358.55;107029;1266;25344;-62
2024/02/18 05:56:39;;;;;;;13.70;8.30;;;;;;;-3.77;100.00;141362.50;107013;1272;25412;-62
2024/02/18 05:59:24;;;;;;;16.80;10.20;;;;;;;-3.77;100.00;141362.00;107037;1272;25372;-62
2024/02/18 06:02:10;;;;;;;10.50;6.80;;;;;;;-3.80;100.00;141353.33;107012;1273;25315;-65
2024/02/18 06:04:56;;;;;;;12.00;7.00;;;;;;;-3.81;100.00;141350.59;107006;1274;25353;-59
2024/02/18 06:07:42;;;;;;;10.70;6.60;;;;;;;-3.79;100.00;141355.56;107028;1266;25484;-65
2024/02/18 06:10:28;;;;;;;12.00;6.60;;;;;;;-3.76;100.00;141362.97;107026;1267;25587;-66
2024/02/18 06:13:14;;;;;;;12.70;7.20;;;;;;;-3.75;100.00;141367.19;107032;1272;25347;-62
2024/02/18 06:16:01;;;;;;;11.40;5.90;;;;;;;-3.78;100.00;141357.78;107009;1273;25373;-64
2024/02/18 06:18:47;;;;;;;8.70;4.80;;;;;;;-3.87;100.00;141337.97;107051;1266;25410;-63
2024/02/18 06:21:33;;;;;;;11.70;5.40;;;;;;;-3.89;100.00;141330.80;107050;1272;25331;-64
2024/02/18 06:24:26;;;;;;;10.30;6.00;;;;;;;-3.87;100.00;141335.50;107015;1273;25446;-61
2024/02/18 06:27:12;;;;;;;8.80;4.70;;;;;;;-3.91;100.00;141327.80;107025;1274;25389;-62
2024/02/18 06:30:01;;;;;;;7.70;4.40;;;;;;;-3.91;100.00;141327.08;107045;1274;25519;-61
2024/02/18 06:32:46;;;;;;;8.50;4.50;;;;;;;-3.88;100.00;141334.75;107023;1266;25412;-61
2024/02/18 06:35:32;;;;;;;6.90;4.10;;;;;;;-3.85;100.00;141341.67;107024;1263;23837;-65
2024/02/18 06:38:18;;;;;;;7.60;4.40;;;;;;;-3.88;100.00;141334.75;107040;1269;25319;-66
2024/02/18 06:41:04;;;;;;;8.40;4.90;;;;;;;-3.86;100.00;141339.95;107022;1272;25343;-67
2024/02/18 06:43:50;;;;;;;7.00;4.50;;;;;;;-3.85;100.00;141340.70;107028;1263;25453;-60
2024/02/18 06:46:37;;;;;;;9.60;4.80;;;;;;;-3.87;100.00;141337.72;107037;1273;25353;-62
2024/02/18 06:49:23;;;;;;;8.80;5.20;;;;;;;-3.87;100.00;141336.22;107021;1273;25372;-63
2024/02/18 06:52:09;;;;;;;11.30;7.00;;;;;;;-3.84;100.00;141343.17;107028;1272;25437;-62
2024/02/18 06:54:55;;;;;;;12.90;7.40;;;;;;;-3.83;100.00;141346.91;107003;1274;25418;-62
2024/02/18 06:57:44;;;;;;;7.90;4.40;;;;;;;-3.79;100.00;141355.80;107031;1274;25356;-61
2024/02/18 07:00:30;;;;;;;5.40;2.50;;;;;;;-3.83;100.00;141345.66;107019;1268;25349;-63
2024/02/18 07:03:16;;;;;;;4.90;2.80;;;;;;;-3.83;100.00;141345.91;107041;1265;25475;-62
2024/02/18 07:06:01;;;;;;;5.40;2.90;;;;;;;-3.86;100.00;141338.72;107068;1273;25338;-62
2024/02/18 07:08:47;;;;;;;4.50;2.40;;;;;;;-3.86;100.00;141340.20;107019;1270;25325;-62
2024/02/18 07:11:33;;;;;;;7.60;4.00;;;;;;;-3.95;100.00;141317.16;107047;1269;25337;-67
2024/02/18 07:14:19;;;;;;;3.60;2.30;;;;;;;-4.06;100.00;141290.91;106995;1266;25829;-62
2024/02/18 07:17:04;;;;;;;3.90;2.50;;;;;;;-4.08;100.00;141284.72;107009;1269;25484;-64
2024/02/18 07:19:50;;;;;;;6.10;3.20;;;;;;;-3.91;100.00;141327.58;106975;1266;25328;-64
2024/02/18 07:22:36;;;;;;;3.80;2.00;;;;;;;-3.61;100.00;141400.16;107046;1267;25322;-66
2024/02/18 07:25:21;;;;;;;6.00;3.00;;;;;;;-3.36;100.00;141459.63;107012;1273;25473;-65
2024/02/18 07:28:07;;;;;;;4.70;2.60;;;;;;;-3.25;100.00;141486.88;107021;1266;25402;-66
2024/02/18 07:30:53;;;;;;;4.40;2.60;;;;;;;-3.21;100.00;141496.55;107007;1273;25390;-65
2024/02/18 07:33:39;;;;;;;6.10;3.10;;;;;;;-3.08;100.00;141527.28;107014;1266;25340;-62
2024/02/18 07:36:25;;;;;;;5.30;2.30;;;;;;;-3.05;100.00;141534.72;107001;1275;25366;-61
2024/02/18 07:39:14;;;;;;;3.60;1.70;;;;;;;-3.22;100.00;141494.08;106994;1274;25337;-61
2024/02/18 07:41:59;;;;;;;4.50;2.00;;;;;;;-3.38;100.00;141454.67;107014;1273;25316;-66
2024/02/18 07:44:45;;;;;;;6.60;2.50;;;;;;;-3.46;100.00;141435.84;106985;1269;25522;-63
2024/02/18 07:47:34;;;;;;;6.20;1.80;;;;;;;-3.62;100.00;141397.41;106983;1273;25356;-64
2024/02/18 07:50:20;;;;;;;5.20;2.00;;;;;;;-3.79;100.00;141355.06;107010;1266;25372;-65
2024/02/18 07:53:06;;;;;;;3.50;1.90;;;;;;;-3.88;100.00;141334.00;106955;1273;25344;-63
2024/02/18 07:55:51;;;;;;;4.50;2.50;;;;;;;-4.01;100.00;141303.55;107001;1274;25475;-64
2024/02/18 07:58:37;;;;;;;4.20;2.20;;;;;;;-3.95;100.00;141317.16;106995;1273;25521;-61
2024/02/18 08:01:23;;;;;;;4.60;2.50;;;;;;;-3.76;100.00;141364.47;107013;1274;25366;-63
2024/02/18 08:04:08;;;;;;;4.00;1.80;;;;;;;-3.34;100.00;141465.33;106993;1270;25363;-63
2024/02/18 08:06:54;;;;;;;4.30;1.60;;;;;;;-3.10;100.00;141523.33;107026;1274;25408;-65
2024/02/18 08:09:40;;;;;;;1.90;1.30;;;;;;;-2.57;100.00;141651.75;107026;1273;25396;-63
2024/02/18 08:12:25;;;;;;;2.20;1.30;;;;;;;-2.35;100.00;141705.58;106998;1265;25331;-64
2024/02/18 08:15:11;;;;;;;2.90;1.60;;;;;;;-2.50;100.00;141668.63;106976;1274;25328;-65
2024/02/18 08:17:57;;;;;;;2.40;1.10;;;;;;;-2.82;100.00;141591.50;107031;1270;25427;-66
2024/02/18 08:20:44;;;;;;;1.10;0.70;;;;;;;-3.38;100.00;141455.41;107025;1272;25431;-64
2024/02/18 08:23:30;;;;;;;1.70;0.60;;;;;;;-3.95;100.00;141317.91;107021;1263;25348;-63
2024/02/18 08:26:24;;;;;;;2.40;1.30;;;;;;;-4.28;100.00;141238.92;107037;1264;25485;-64
2024/02/18 08:29:09;;;;;;;2.10;1.30;;;;;;;-4.57;100.00;141166.38;107027;1270;25334;-64
2024/02/18 08:31:57;;;;;;;1.80;1.10;;;;;;;-4.85;100.00;141099.80;107013;1274;25375;-62
2024/02/18 08:34:43;;;;;;;3.30;1.20;;;;;;;-5.12;100.00;141033.72;107012;1274;25328;-62
2024/02/18 08:37:29;;;;;;;2.90;1.40;;;;;;;-5.26;100.00;141000.34;107455;1263;25348;-65
2024/02/18 08:40:18;;;;;;;2.70;1.30;;;;;;;-5.32;100.00;140987.20;106964;1264;25577;-66
2024/02/18 08:43:04;;;;;;;2.20;1.20;;;;;;;-5.37;100.00;140973.59;106838;1273;25487;-65
2024/02/18 08:45:50;;;;;;;3.30;1.40;;;;;;;-5.39;100.00;140969.66;106913;1261;25347;-64
2024/02/18 08:48:37;;;;;;;2.50;1.40;;;;;;;-5.33;100.00;140984.00;106900;1261;25325;-66
2024/02/18 08:51:22;;;;;;;2.60;1.40;;;;;;;-5.24;100.00;141005.03;106880;1264;24184;-64
2024/02/18 08:54:09;;;;;;;1.80;1.10;;;;;;;-5.14;100.00;141030.75;107042;1264;25343;-67
2024/02/18 08:56:55;;;;;;;2.70;1.70;;;;;;;-4.84;100.00;141101.53;107050;1270;24206;-64
2024/02/18 08:59:42;;;;;;;3.30;1.70;;;;;;;-4.41;100.00;141204.97;106968;1264;25356;-64
2024/02/18 09:02:28;;;;;;;3.40;1.70;;;;;;;-4.19;100.00;141259.70;106997;1264;25356;-61
2024/02/18 09:05:14;;;;;;;2.30;1.30;;;;;;;-4.45;100.00;141197.30;107006;1263;25328;-64
2024/02/18 09:08:00;;;;;;;3.20;1.60;;;;;;;-4.92;100.00;141083.22;106970;1272;25484;-61
2024/02/18 09:10:46;;;;;;;2.30;1.50;;;;;;;-5.24;100.00;141006.28;106982;1257;25551;-66
2024/02/18 09:13:33;;;;;;;3.10;1.70;;;;;;;-5.36;100.00;140975.33;106853;1267;25501;-63
2024/02/18 09:16:18;;;;;;;3.10;1.80;;;;;;;-5.32;100.00;140984.98;106903;1264;25350;-64
2024/02/18 09:19:05;;;;;;;2.30;1.20;;;;;;;-5.12;100.00;141033.22;106869;1266;25334;-65
2024/02/18 09:21:51;;;;;;;1.40;0.90;;;;;;;-4.94;100.00;141078.27;106775;1274;25389;-64
2024/02/18 09:24:37;;;;;;;3.00;1.40;;;;;;;-4.96;100.00;141073.08;106982;1264;25349;-65
2024/02/18 09:27:22;;;;;;;11.90;4.80;;;;;;;-5.09;100.00;141042.38;107036;1270;25356;-64
2024/02/18 09:30:09;;;;;;;7.60;3.50;;;;;;;-5.36;100.00;140977.08;106966;1264;25565;-69
2024/02/18 09:32:54;;;;;;;4.30;2.30;;;;;;;-5.55;100.00;140930.08;107023;1258;25390;-72
2024/02/18 09:35:40;;;;;;;2.60;1.30;;;;;;;-5.67;100.00;140901.91;107014;1258;25328;-67
2024/02/18 09:38:26;;;;;;;3.10;1.90;;;;;;;-5.62;100.00;140913.75;106861;1264;169995;-68
2024/02/18 09:41:18;;;;;;;1.70;1.20;;;;;;;-5.54;100.00;140932.06;106935;1260;25376;-68
2024/02/18 09:44:07;;;;;;;3.30;2.00;;;;;;;-5.67;100.00;140901.39;107000;1264;25398;-66
2024/02/18 09:46:54;;;;;;;3.00;1.60;;;;;;;-5.74;100.00;140885.33;107016;1264;25328;-70
2024/02/18 09:49:40;;;;;;;3.10;1.80;;;;;;;-5.84;100.00;140860.09;106994;1270;25347;-70
2024/02/18 09:52:27;;;;;;;3.00;1.70;;;;;;;-5.95;100.00;140834.91;106953;1257;23774;-70
2024/02/18 09:55:13;;;;;;;2.90;1.70;;;;;;;-6.07;100.00;140805.03;106959;1264;25567;-68
2024/02/18 09:58:00;;;;;;;5.40;3.70;;;;;;;-6.10;100.00;140797.13;106892;1266;25388;-67
2024/02/18 10:00:45;;;;;;;5.40;3.00;;;;;;;-6.09;100.00;140799.09;106890;1264;25347;-66
2024/02/18 10:03:32;;;;;;;5.60;3.30;;;;;;;-6.19;100.00;140777.06;106904;1267;25492;-66
2024/02/18 10:06:18;;;;;;;7.20;3.30;;;;;;;-6.33;100.00;140741.73;106928;1264;25346;-66
2024/02/18 10:09:04;;;;;;;4.20;2.10;;;;;;;-6.47;100.00;140708.63;106969;1273;25374;-64
2024/02/18 10:11:51;;;;;;;4.00;2.20;;;;;;;-6.58;100.00;140680.72;106919;1266;25458;-64
2024/02/18 10:14:37;;;;;;;4.40;2.30;;;;;;;-6.66;100.00;140662.69;106922;1267;25388;-62
2024/02/18 10:17:24;;;;;;;5.10;2.40;;;;;;;-6.63;100.00;140669.84;106971;1274;25336;-67
2024/02/18 10:20:10;;;;;;;3.40;2.20;;;;;;;-6.61;100.00;140673.80;106944;1274;25318;-66
2024/02/18 10:22:55;;;;;;;2.70;1.60;;;;;;;-6.61;100.00;140674.03;106939;1273;25390;-66
2024/02/18 10:25:41;;;;;;;3.10;1.60;;;;;;;-6.62;100.00;140672.06;106941;1257;25466;-68
2024/02/18 10:28:27;;;;;;;3.30;2.00;;;;;;;-6.51;100.00;140697.52;106949;1266;25484;-65
2024/02/18 10:31:13;;;;;;;5.10;3.20;;;;;;;-6.45;100.00;140714.31;106935;1266;25408;-65
2024/02/18 10:33:58;;;;;;;3.90;2.10;;;;;;;-6.51;100.00;140699.48;106968;1264;25563;-66
2024/02/18 10:36:47;;;;;;;4.10;2.40;;;;;;;-6.58;100.00;140680.97;106928;1263;25372;-65
2024/02/18 10:39:34;;;;;;;3.50;2.00;;;;;;;-6.63;100.00;140670.09;106936;1267;25391;-67
2024/02/18 10:42:23;;;;;;;4.60;2.20;;;;;;;-6.72;100.00;140647.86;106956;1273;25363;-65
2024/02/18 10:45:11;;;;;;;7.40;3.80;;;;;;;-6.75;100.00;140640.20;106982;1273;25318;-63
2024/02/18 10:48:02;;;;;;;5.30;2.90;;;;;;;-6.65;100.00;140665.16;106947;1254;25338;-66
2024/02/18 10:50:49;;;;;;;4.60;2.40;;;;;;;-6.58;100.00;140682.70;106945;1264;25376;-63
2024/02/18 10:53:49;;;;;;;6.20;3.00;;;;;;;-6.57;100.00;140683.42;106999;1263;25466;-63
2024/02/18 10:56:37;;;;;;;4.30;2.50;;;;;;;-6.53;100.00;140692.58;106936;1264;26745;-68
2024/02/18 10:59:38;;;;;;;5.00;2.70;;;;;;;-6.58;100.00;140681.70;107000;1258;22643;-63
2024/02/18 11:02:30;;;;;;;7.90;4.90;;;;;;;-6.60;100.00;140677.27;107428;1256;23348;-68
2024/02/18 11:05:18;;;;;;;5.40;2.90;;;;;;;-6.49;100.00;140702.72;107028;1263;25478;-65
2024/02/18 11:08:09;;;;;;;4.90;2.80;;;;;;;-6.44;100.00;140716.53;106952;1264;25472;-67
2024/02/18 11:10:55;;;;;;;4.20;2.60;;;;;;;-6.43;100.00;140717.53;106928;1259;25561;-67
2024/02/18 11:13:43;;;;;;;5.80;2.60;;;;;;;-6.45;100.00;140712.34;107107;1264;25328;-67
2024/02/18 11:16:30;;;;;;;4.20;2.50;;;;;;;-6.44;100.00;140715.33;106899;1253;25338;-68
2024/02/18 11:19:22;;;;;;;3.80;2.70;;;;;;;-6.49;100.00;140704.17;106953;1264;25338;-68
2024/02/18 11:22:08;;;;;;;3.90;2.20;;;;;;;-6.50;100.00;140699.73;106936;1257;25435;-67
2024/02/18 11:24:55;;;;;;;3.30;1.90;;;;;;;-6.59;100.00;140679.97;106961;1255;25409;-68
2024/02/18 11:27:41;;;;;;;4.90;3.40;;;;;;;-6.64;100.00;140667.38;106997;1264;25511;-68
2024/02/18 11:30:27;;;;;;;4.60;2.30;;;;;;;-6.65;100.00;140663.16;106973;1256;25347;-68
2024/02/18 11:33:19;;;;;;;5.40;2.80;;;;;;;-6.71;100.00;140649.84;107004;1256;25384;-71
2024/02/18 11:36:10;;;;;;;4.80;2.70;;;;;;;-6.71;100.00;140650.58;106953;1274;25345;-66
2024/02/18 11:38:57;;;;;;;3.50;2.20;;;;;;;-6.72;100.00;140645.88;106940;1264;25353;-65
2024/02/18 11:41:43;;;;;;;3.90;2.00;;;;;;;-6.77;100.00;140635.75;106950;1274;25343;-67
2024/02/18 11:44:28;;;;;;;4.10;2.30;;;;;;;-6.76;100.00;140639.22;106948;1264;25389;-69
2024/02/18 11:47:14;;;;;;;4.30;2.50;;;;;;;-6.67;100.00;140660.20;106998;1260;25337;-65
2024/02/18 11:50:00;;;;;;;4.80;2.80;;;;;;;-6.62;100.00;140672.80;106932;1261;25337;-67
2024/02/18 11:52:47;;;;;;;4.60;2.80;;;;;;;-6.62;100.00;140671.33;106962;1267;25481;-68
2024/02/18 11:55:34;;;;;;;6.20;2.70;;;;;;;-6.62;100.00;140672.55;106939;1258;25500;-68
2024/02/18 11:58:21;;;;;;;5.60;2.40;;;;;;;-6.66;100.00;140663.17;106917;1264;25385;-70
2024/02/18 12:01:07;;;;;;;4.40;2.50;;;;;;;-6.64;100.00;140667.13;106932;1266;25405;-66
2024/02/18 12:03:55;;;;;;;5.20;2.10;;;;;;;-6.64;100.00;140665.88;107001;1264;25346;-70
2024/02/18 12:06:40;;;;;;;3.30;1.80;;;;;;;-6.66;100.00;140661.19;106901;1264;25433;-65
2024/02/18 12:09:27;;;;;;;3.20;1.80;;;;;;;-6.69;100.00;140654.53;106944;1267;25449;-70
2024/02/18 12:12:13;;;;;;;4.00;2.30;;;;;;;-6.69;100.00;140655.02;106921;1257;25477;-71
2024/02/18 12:14:59;;;;;;;4.20;2.30;;;;;;;-6.74;100.00;140642.91;106931;1274;25405;-70
2024/02/18 12:17:55;;;;;;;3.90;2.10;;;;;;;-6.73;100.00;140643.66;106968;1267;25408;-65
2024/02/18 12:20:47;;;;;;;4.10;2.30;;;;;;;-6.68;100.00;140658.22;106927;1263;25500;-66
2024/02/18 12:23:40;;;;;;;3.80;2.30;;;;;;;-6.71;100.00;140650.08;106913;1260;25427;-68
2024/02/18 12:26:26;;;;;;;4.60;2.60;;;;;;;-6.75;100.00;140640.67;106950;1274;25343;-66
2024/02/18 12:29:12;;;;;;;4.30;2.50;;;;;;;-6.82;100.00;140624.39;106952;1255;25389;-66